Time;durP1;ratioP1;P1;durP2;ratioP2;P2;SDS_P1;SDS_P2;PMS_P1;PMS_P2;Temp;Humidity;BMP_temperature;BMP_pressure;BME280_temperature;BME280_humidity;BME280_pressure;Samples;Min_cycle;Max_cycle;Signal;HPM_P1;HPM_P2
2023/09/22 00:00:14;;;;;;;12.73;4.28;;;;;;;;;;5034036;28;20063;-72
2023/09/22 00:02:42;;;;;;;10.30;4.70;;;;;;;;;;5036149;28;20069;-72
2023/09/22 00:05:09;;;;;;;9.88;5.07;;;;;;;;;;5028754;28;20288;-70
2023/09/22 00:07:37;;;;;;;10.20;4.88;;;;;;;;;;5027052;28;20058;-69
2023/09/22 00:10:06;;;;;;;8.25;4.47;;;;;;;;;;5059785;28;20048;-70
2023/09/22 00:12:33;;;;;;;10.60;4.55;;;;;;;;;;5049826;28;20081;-70
2023/09/22 00:15:00;;;;;;;9.68;5.18;;;;;;;;;;5033586;28;20057;-71
2023/09/22 00:17:27;;;;;;;10.80;5.13;;;;;;;;;;5058110;28;20110;-70
2023/09/22 00:19:54;;;;;;;8.68;4.72;;;;;;;;;;5045376;28;20064;-69
2023/09/22 00:22:22;;;;;;;11.52;5.30;;;;;;;;;;5042969;28;20080;-70
2023/09/22 00:24:50;;;;;;;9.93;5.13;;;;;;;;;;5025385;28;20065;-70
2023/09/22 00:27:18;;;;;;;10.52;5.43;;;;;;;;;;5023870;28;20057;-71
2023/09/22 00:29:44;;;;;;;12.15;5.93;;;;;;;;;;5044905;28;20146;-71
2023/09/22 00:32:11;;;;;;;12.25;5.85;;;;;;;;;;5043395;28;20057;-70
2023/09/22 00:34:38;;;;;;;12.93;6.53;;;;;;;;;;5036478;28;20229;-69
2023/09/22 00:37:05;;;;;;;15.13;6.90;;;;;;;;;;5039925;28;20053;-70
2023/09/22 00:39:32;;;;;;;11.13;5.90;;;;;;;;;;5047942;28;20037;-70
2023/09/22 00:41:59;;;;;;;12.75;6.65;;;;;;;;;;5045216;28;20069;-70
2023/09/22 00:44:27;;;;;;;14.10;6.68;;;;;;;;;;5040960;28;20322;-70
2023/09/22 00:46:54;;;;;;;14.20;6.18;;;;;;;;;;5013537;28;20133;-69
2023/09/22 00:49:20;;;;;;;13.73;7.50;;;;;;;;;;5024106;28;20085;-70
2023/09/22 00:51:47;;;;;;;14.55;6.50;;;;;;;;;;5025221;28;20100;-70
2023/09/22 00:54:14;;;;;;;14.68;6.53;;;;;;;;;;5028648;28;20049;-70
2023/09/22 00:56:41;;;;;;;14.18;7.40;;;;;;;;;;5018048;28;20442;-70
2023/09/22 00:59:08;;;;;;;14.65;6.65;;;;;;;;;;5024831;28;20060;-70
2023/09/22 01:01:37;;;;;;;17.27;6.82;;;;;;;;;;5045058;28;20057;-70
2023/09/22 01:04:03;;;;;;;;;;;;;;;;;;5037592;28;20138;-69
2023/09/22 01:06:31;;;;;;;17.27;8.20;;;;;;;;;;5055263;28;19920;-70
2023/09/22 01:08:57;;;;;;;21.35;8.45;;;;;;;;;;5059460;28;20045;-70
2023/09/22 01:11:24;;;;;;;15.25;8.05;;;;;;;;;;5064201;28;20045;-69
2023/09/22 01:13:51;;;;;;;17.38;7.95;;;;;;;;;;5045906;28;20095;-71
2023/09/22 01:16:17;;;;;;;21.95;9.45;;;;;;;;;;5038902;28;20082;-69
2023/09/22 01:18:45;;;;;;;18.50;9.50;;;;;;;;;;5036498;28;20115;-70
2023/09/22 01:21:14;;;;;;;18.83;8.55;;;;;;;;;;5041302;28;20061;-70
2023/09/22 01:23:42;;;;;;;17.90;8.75;;;;;;;;;;5041782;28;20056;-70
2023/09/22 01:26:08;;;;;;;18.35;9.57;;;;;;;;;;5038318;28;20108;-70
2023/09/22 01:28:35;;;;;;;18.23;9.60;;;;;;;;;;5037809;28;20055;-70
2023/09/22 01:31:02;;;;;;;17.95;9.07;;;;;;;;;;5059333;28;20053;-70
2023/09/22 01:33:28;;;;;;;16.60;7.75;;;;;;;;;;5042509;28;20045;-70
2023/09/22 01:35:55;;;;;;;19.90;8.18;;;;;;;;;;5039116;28;20076;-70
2023/09/22 01:38:23;;;;;;;16.88;8.38;;;;;;;;;;5042523;28;20072;-70
2023/09/22 01:40:52;;;;;;;17.67;8.38;;;;;;;;;;5057109;28;20137;-70
2023/09/22 01:43:18;;;;;;;20.13;8.80;;;;;;;;;;5029653;28;20072;-70
2023/09/22 01:45:45;;;;;;;16.92;7.93;;;;;;;;;;5018836;28;20053;-71
2023/09/22 01:48:12;;;;;;;19.05;8.38;;;;;;;;;;5022353;28;20053;-70
2023/09/22 01:50:40;;;;;;;16.73;7.50;;;;;;;;;;5018418;28;20112;-70
2023/09/22 01:53:08;;;;;;;20.20;8.53;;;;;;;;;;5021870;28;20216;-71
2023/09/22 01:55:36;;;;;;;18.40;7.38;;;;;;;;;;5021872;28;20303;-70
2023/09/22 01:58:05;;;;;;;15.68;6.88;;;;;;;;;;5021932;28;20127;-71
2023/09/22 02:00:33;;;;;;;20.20;7.40;;;;;;;;;;5034010;28;20095;-70
2023/09/22 02:03:00;;;;;;;15.20;7.07;;;;;;;;;;5043790;28;20057;-71
2023/09/22 02:05:27;;;;;;;14.55;6.53;;;;;;;;;;5007541;28;20139;-70
2023/09/22 02:07:53;;;;;;;14.18;6.28;;;;;;;;;;5023082;28;20094;-70
2023/09/22 02:10:21;;;;;;;14.75;6.78;;;;;;;;;;5022178;28;20061;-70
2023/09/22 02:12:48;;;;;;;15.57;6.93;;;;;;;;;;5025152;28;20111;-70
2023/09/22 02:15:16;;;;;;;17.70;7.30;;;;;;;;;;5015804;28;20042;-70
2023/09/22 02:17:46;;;;;;;15.30;6.82;;;;;;;;;;5021476;28;20068;-70
2023/09/22 02:20:21;;;;;;;16.67;6.78;;;;;;;;;;5037455;28;20125;-70
2023/09/22 02:22:49;;;;;;;15.65;6.40;;;;;;;;;;5031509;28;20057;-70
2023/09/22 02:25:16;;;;;;;13.93;6.47;;;;;;;;;;5035876;28;20075;-70
2023/09/22 02:27:43;;;;;;;14.05;6.25;;;;;;;;;;5041385;28;20049;-70
2023/09/22 02:30:10;;;;;;;16.15;6.78;;;;;;;;;;5040445;28;20061;-70
2023/09/22 02:32:40;;;;;;;19.63;7.25;;;;;;;;;;5057515;28;20147;-71
2023/09/22 02:35:07;;;;;;;15.55;7.47;;;;;;;;;;5048373;28;20057;-71
2023/09/22 02:37:34;;;;;;;18.50;7.88;;;;;;;;;;5040118;28;20136;-70
2023/09/22 02:40:01;;;;;;;17.60;7.05;;;;;;;;;;5029601;28;20060;-70
2023/09/22 02:42:28;;;;;;;16.38;7.18;;;;;;;;;;5041814;28;20053;-70
2023/09/22 02:44:55;;;;;;;17.33;6.95;;;;;;;;;;5028863;28;20057;-70
2023/09/22 02:47:22;;;;;;;14.65;6.00;;;;;;;;;;5042616;28;20081;-70
2023/09/22 02:49:50;;;;;;;13.93;6.50;;;;;;;;;;5040713;28;20064;-70
2023/09/22 02:52:17;;;;;;;15.63;5.93;;;;;;;;;;5040747;28;20133;-70
2023/09/22 02:54:43;;;;;;;12.52;5.40;;;;;;;;;;5021312;28;20117;-69
2023/09/22 02:57:10;;;;;;;16.45;6.60;;;;;;;;;;5041104;28;20049;-70
2023/09/22 02:59:36;;;;;;;14.80;5.90;;;;;;;;;;5039233;28;20144;-70
2023/09/22 03:02:03;;;;;;;11.80;5.20;;;;;;;;;;5046037;28;20057;-69
2023/09/22 03:04:33;;;;;;;13.32;5.78;;;;;;;;;;5042358;28;20065;-70
2023/09/22 03:07:01;;;;;;;13.23;5.45;;;;;;;;;;5038048;28;20048;-71
2023/09/22 03:09:28;;;;;;;12.95;4.97;;;;;;;;;;5044237;28;20053;-70
2023/09/22 03:11:55;;;;;;;13.02;5.30;;;;;;;;;;5044767;28;20045;-70
2023/09/22 03:14:22;;;;;;;10.80;4.80;;;;;;;;;;5039819;28;20064;-70
2023/09/22 03:16:49;;;;;;;14.63;5.00;;;;;;;;;;5041627;28;20127;-70
2023/09/22 03:19:16;;;;;;;11.23;5.20;;;;;;;;;;5044083;28;20053;-70
2023/09/22 03:21:42;;;;;;;11.95;4.72;;;;;;;;;;5045369;28;20080;-70
2023/09/22 03:24:10;;;;;;;11.32;5.05;;;;;;;;;;5034644;28;20128;-70
2023/09/22 03:26:38;;;;;;;10.13;4.43;;;;;;;;;;5042945;28;20052;-71
2023/09/22 03:29:04;;;;;;;9.63;4.78;;;;;;;;;;5040283;28;20931;-70
2023/09/22 03:31:31;;;;;;;10.98;4.75;;;;;;;;;;5044595;28;20061;-71
2023/09/22 03:33:58;;;;;;;11.75;4.55;;;;;;;;;;5038860;28;20095;-69
2023/09/22 03:36:25;;;;;;;11.65;5.25;;;;;;;;;;5024681;28;20053;-69
2023/09/22 03:38:52;;;;;;;13.02;5.18;;;;;;;;;;5018258;28;20057;-70
2023/09/22 03:41:22;;;;;;;9.65;4.43;;;;;;;;;;5025933;28;20130;-70
2023/09/22 03:43:49;;;;;;;12.15;4.47;;;;;;;;;;5036760;28;20099;-69
2023/09/22 03:46:15;;;;;;;11.77;4.45;;;;;;;;;;5041688;28;20088;-70
2023/09/22 03:48:42;;;;;;;11.30;4.30;;;;;;;;;;5019084;28;20057;-69
2023/09/22 03:51:09;;;;;;;12.27;4.47;;;;;;;;;;5026018;28;20100;-70
2023/09/22 03:53:35;;;;;;;11.27;4.65;;;;;;;;;;5025221;28;20149;-70
2023/09/22 03:56:03;;;;;;;10.10;4.60;;;;;;;;;;5012716;28;20053;-70
2023/09/22 03:58:31;;;;;;;13.15;4.68;;;;;;;;;;5023701;28;20057;-70
2023/09/22 04:01:05;;;;;;;13.57;4.75;;;;;;;;;;5037092;28;20037;-71
2023/09/22 04:03:32;;;;;;;10.60;4.38;;;;;;;;;;5050991;28;20075;-70
2023/09/22 04:05:59;;;;;;;14.68;3.90;;;;;;;;;;5041068;28;20053;-69
2023/09/22 04:08:25;;;;;;;15.50;5.00;;;;;;;;;;5036665;28;20054;-70
2023/09/22 04:10:52;;;;;;;12.70;4.43;;;;;;;;;;5016153;28;20062;-70
2023/09/22 04:13:19;;;;;;;10.10;4.60;;;;;;;;;;5038705;28;20149;-72
2023/09/22 04:15:47;;;;;;;12.80;5.15;;;;;;;;;;5038385;28;20122;-69
2023/09/22 04:18:13;;;;;;;11.90;4.65;;;;;;;;;;5043566;28;20060;-69
2023/09/22 04:20:44;;;;;;;12.85;5.57;;;;;;;;;;5028118;28;20068;-70
2023/09/22 04:23:10;;;;;;;11.98;4.72;;;;;;;;;;5021154;28;20105;-70
2023/09/22 04:25:37;;;;;;;12.82;4.90;;;;;;;;;;5018957;28;20056;-70
2023/09/22 04:28:11;;;;;;;10.30;4.78;;;;;;;;;;5025239;28;20084;-69
2023/09/22 04:30:38;;;;;;;16.88;4.53;;;;;;;;;;5021915;28;20084;-71
2023/09/22 04:33:07;;;;;;;11.60;4.53;;;;;;;;;;5019242;28;20156;-70
2023/09/22 04:35:33;;;;;;;18.70;5.72;;;;;;;;;;5010559;28;20372;-72
2023/09/22 04:38:01;;;;;;;11.82;4.72;;;;;;;;;;5024176;28;20049;-70
2023/09/22 04:40:29;;;;;;;13.65;4.68;;;;;;;;;;5042470;28;20055;-70
2023/09/22 04:42:56;;;;;;;12.27;4.55;;;;;;;;;;5035218;28;20049;-70
2023/09/22 04:45:23;;;;;;;10.38;4.03;;;;;;;;;;5030815;28;20057;-70
2023/09/22 04:47:51;;;;;;;16.60;4.43;;;;;;;;;;5044336;28;20118;-70
2023/09/22 04:50:21;;;;;;;11.07;4.40;;;;;;;;;;5043069;28;20057;-70
2023/09/22 04:52:49;;;;;;;13.95;4.18;;;;;;;;;;5035477;28;20118;-70
2023/09/22 04:55:16;;;;;;;10.18;3.95;;;;;;;;;;5038424;28;20057;-70
2023/09/22 04:57:43;;;;;;;8.38;3.88;;;;;;;;;;5043855;28;20087;-70
2023/09/22 05:00:16;;;;;;;9.65;3.88;;;;;;;;;;5042676;28;20134;-71
2023/09/22 05:02:43;;;;;;;12.90;3.97;;;;;;;;;;5038638;28;20077;-70
2023/09/22 05:05:10;;;;;;;8.93;3.83;;;;;;;;;;5031317;28;20053;-70
2023/09/22 05:07:39;;;;;;;8.75;3.42;;;;;;;;;;5044004;28;20064;-70
2023/09/22 05:10:06;;;;;;;8.32;3.78;;;;;;;;;;5042643;28;20080;-69
2023/09/22 05:12:32;;;;;;;10.48;4.18;;;;;;;;;;5057893;28;20067;-70
2023/09/22 05:15:00;;;;;;;10.50;3.85;;;;;;;;;;5030901;28;20057;-70
2023/09/22 05:17:27;;;;;;;10.55;4.80;;;;;;;;;;5040180;28;20130;-71
2023/09/22 05:19:54;;;;;;;11.02;4.28;;;;;;;;;;5041116;28;20075;-71
2023/09/22 05:22:22;;;;;;;11.23;4.38;;;;;;;;;;5042204;28;20061;-71
2023/09/22 05:24:51;;;;;;;14.18;5.25;;;;;;;;;;5031588;28;20117;-70
2023/09/22 05:27:18;;;;;;;8.93;3.33;;;;;;;;;;5042013;28;20059;-70
2023/09/22 05:29:45;;;;;;;6.90;3.08;;;;;;;;;;5041445;28;20139;-72
2023/09/22 05:32:12;;;;;;;12.25;3.67;;;;;;;;;;5039090;28;20061;-69
2023/09/22 05:34:39;;;;;;;8.27;3.25;;;;;;;;;;4995979;28;20063;-71
2023/09/22 05:37:06;;;;;;;7.22;3.10;;;;;;;;;;5034692;28;20064;-70
2023/09/22 05:39:33;;;;;;;15.45;4.07;;;;;;;;;;5039790;28;20083;-71
2023/09/22 05:42:01;;;;;;;11.70;4.68;;;;;;;;;;5046639;28;20081;-71
2023/09/22 05:44:29;;;;;;;7.85;3.17;;;;;;;;;;5036436;28;20057;-71
2023/09/22 05:46:56;;;;;;;9.32;3.63;;;;;;;;;;5030022;28;20061;-71
2023/09/22 05:49:23;;;;;;;7.43;2.95;;;;;;;;;;5040896;28;20059;-71
2023/09/22 05:51:51;;;;;;;10.23;2.88;;;;;;;;;;5040870;28;20071;-71
2023/09/22 05:54:18;;;;;;;7.32;2.85;;;;;;;;;;5036614;28;20083;-70
2023/09/22 05:56:44;;;;;;;6.45;2.60;;;;;;;;;;5030611;28;20059;-70
2023/09/22 05:59:14;;;;;;;4.82;2.33;;;;;;;;;;5036237;28;20159;-72
2023/09/22 06:01:40;;;;;;;8.98;2.40;;;;;;;;;;5043155;28;20064;-70
2023/09/22 06:04:09;;;;;;;6.85;2.53;;;;;;;;;;5019714;28;20049;-71
2023/09/22 06:06:36;;;;;;;5.53;2.33;;;;;;;;;;5035301;28;20190;-70
2023/09/22 06:09:10;;;;;;;6.35;2.45;;;;;;;;;;5013532;28;20064;-70
2023/09/22 06:11:37;;;;;;;5.03;2.30;;;;;;;;;;5020489;28;20061;-70
2023/09/22 06:14:05;;;;;;;5.65;2.30;;;;;;;;;;5001521;28;20253;-70
2023/09/22 06:16:35;;;;;;;7.15;2.55;;;;;;;;;;5017092;28;20148;-70
2023/09/22 06:19:03;;;;;;;8.68;3.42;;;;;;;;;;5013708;28;20102;-68
2023/09/22 06:21:31;;;;;;;10.30;3.42;;;;;;;;;;5018233;28;20064;-69
2023/09/22 06:23:58;;;;;;;7.70;2.90;;;;;;;;;;5013140;28;20081;-71
2023/09/22 06:26:25;;;;;;;5.25;2.50;;;;;;;;;;5017328;28;20057;-69
2023/09/22 06:28:52;;;;;;;5.15;2.00;;;;;;;;;;5022418;28;20079;-70
2023/09/22 06:31:19;;;;;;;7.28;2.20;;;;;;;;;;5036274;28;20143;-68
2023/09/22 06:33:49;;;;;;;3.00;1.67;;;;;;;;;;5039449;28;20049;-69
2023/09/22 06:36:17;;;;;;;5.07;1.85;;;;;;;;;;5007413;28;20068;-69
2023/09/22 06:38:44;;;;;;;6.65;1.92;;;;;;;;;;5034042;28;20116;-69
2023/09/22 06:41:17;;;;;;;5.53;2.47;;;;;;;;;;5033634;28;20163;-67
2023/09/22 06:43:44;;;;;;;4.00;2.00;;;;;;;;;;5028055;28;20052;-70
2023/09/22 06:46:11;;;;;;;5.43;1.60;;;;;;;;;;5014095;28;20136;-69
2023/09/22 06:48:40;;;;;;;4.38;1.73;;;;;;;;;;5035755;28;20111;-70
2023/09/22 06:51:14;;;;;;;3.95;1.90;;;;;;;;;;5038729;28;20064;-69
2023/09/22 06:53:41;;;;;;;5.40;1.63;;;;;;;;;;5051898;28;20889;-71
2023/09/22 06:56:11;;;;;;;6.43;1.73;;;;;;;;;;5033259;28;20057;-70
2023/09/22 06:58:40;;;;;;;6.80;1.83;;;;;;;;;;5038087;28;20149;-69
2023/09/22 07:01:07;;;;;;;;;;;;;;;;;;5033615;28;20056;-68
2023/09/22 07:03:34;;;;;;;7.93;1.80;;;;;;;;;;5035879;28;19925;-70
2023/09/22 07:06:02;;;;;;;4.55;1.85;;;;;;;;;;5029972;28;20057;-70
2023/09/22 07:08:30;;;;;;;;;;;;;;;;;;5038839;28;20117;-68
2023/09/22 07:11:02;;;;;;;4.03;1.77;;;;;;;;;;5045539;28;19984;-70
2023/09/22 07:16:10;;;;;;;4.15;1.60;;;;;;;;;;4977966;28;20071;-71
2023/09/22 07:18:37;;;;;;;8.05;2.15;;;;;;;;;;5019679;28;20052;-72
2023/09/22 07:21:07;;;;;;;6.30;2.10;;;;;;;;;;5046009;28;20041;-70
2023/09/22 07:23:36;;;;;;;6.70;1.58;;;;;;;;;;5036477;28;20088;-72
2023/09/22 07:26:04;;;;;;;5.47;1.63;;;;;;;;;;5032955;28;20057;-72
2023/09/22 07:28:34;;;;;;;3.88;1.67;;;;;;;;;;5051713;28;20068;-69
2023/09/22 07:31:01;;;;;;;3.58;1.80;;;;;;;;;;5047517;28;20071;-72
2023/09/22 07:33:30;;;;;;;3.90;1.73;;;;;;;;;;5037435;28;20056;-69
2023/09/22 07:35:58;;;;;;;7.55;1.55;;;;;;;;;;5021746;28;20045;-71
2023/09/22 07:38:26;;;;;;;5.90;1.70;;;;;;;;;;5035096;28;20060;-71
2023/09/22 07:40:54;;;;;;;5.50;1.80;;;;;;;;;;5030089;28;20059;-70
2023/09/22 07:43:21;;;;;;;3.17;1.45;;;;;;;;;;5035306;28;20049;-70
2023/09/22 07:45:49;;;;;;;4.35;1.58;;;;;;;;;;4994459;28;20053;-69
2023/09/22 07:48:16;;;;;;;4.40;1.55;;;;;;;;;;5060224;28;20199;-71
2023/09/22 07:50:45;;;;;;;3.95;1.30;;;;;;;;;;5053833;28;20134;-72
2023/09/22 07:53:12;;;;;;;6.18;1.40;;;;;;;;;;5040800;28;20057;-70
2023/09/22 07:55:41;;;;;;;6.70;1.50;;;;;;;;;;5031315;28;20129;-71
2023/09/22 07:58:09;;;;;;;5.60;1.50;;;;;;;;;;5039628;28;20078;-70
2023/09/22 08:00:42;;;;;;;2.95;1.02;;;;;;;;;;5030653;28;20105;-70
2023/09/22 08:03:09;;;;;;;4.47;1.48;;;;;;;;;;5030865;28;20053;-70
2023/09/22 08:05:36;;;;;;;2.88;1.40;;;;;;;;;;5005174;28;20061;-70
2023/09/22 08:08:06;;;;;;;3.03;1.25;;;;;;;;;;5041059;28;20095;-71
2023/09/22 08:10:33;;;;;;;5.28;1.30;;;;;;;;;;5044736;28;20057;-70
2023/09/22 08:13:03;;;;;;;3.38;1.00;;;;;;;;;;5037915;28;20049;-71
2023/09/22 08:15:31;;;;;;;3.50;1.20;;;;;;;;;;5002418;28;20055;-70
2023/09/22 08:18:02;;;;;;;3.55;1.00;;;;;;;;;;5041182;28;20061;-69
2023/09/22 08:20:29;;;;;;;4.68;1.08;;;;;;;;;;5040609;28;20114;-71
2023/09/22 08:22:56;;;;;;;4.63;0.95;;;;;;;;;;5050332;28;20052;-70
2023/09/22 08:25:23;;;;;;;4.90;1.00;;;;;;;;;;5016579;28;20099;-70
2023/09/22 08:27:52;;;;;;;1.98;0.80;;;;;;;;;;5035720;28;20053;-68
2023/09/22 08:30:20;;;;;;;1.45;0.85;;;;;;;;;;5046779;28;20055;-70
2023/09/22 08:32:49;;;;;;;4.50;1.02;;;;;;;;;;5058863;28;20057;-71
2023/09/22 08:35:16;;;;;;;2.22;0.88;;;;;;;;;;5036365;28;20071;-71
2023/09/22 08:37:46;;;;;;;1.50;0.70;;;;;;;;;;5063952;28;20080;-71
2023/09/22 08:40:15;;;;;;;1.35;0.75;;;;;;;;;;5062571;28;20139;-69
2023/09/22 08:42:46;;;;;;;3.47;0.98;;;;;;;;;;5061762;28;20044;-70
2023/09/22 08:45:13;;;;;;;2.47;0.85;;;;;;;;;;5028351;28;20140;-69
2023/09/22 08:47:41;;;;;;;1.63;0.80;;;;;;;;;;5047190;28;20059;-68
2023/09/22 08:50:13;;;;;;;1.92;0.80;;;;;;;;;;5058246;28;20056;-69
2023/09/22 08:52:41;;;;;;;1.35;0.63;;;;;;;;;;5039097;28;20143;-70
2023/09/22 08:55:13;;;;;;;2.92;0.68;;;;;;;;;;5010520;28;20064;-68
2023/09/22 08:57:45;;;;;;;1.58;0.70;;;;;;;;;;5041108;28;20064;-69
2023/09/22 09:00:19;;;;;;;3.10;0.80;;;;;;;;;;5049568;28;20061;-70
2023/09/22 09:02:46;;;;;;;2.35;0.85;;;;;;;;;;5050735;28;20090;-69
2023/09/22 09:05:27;;;;;;;2.28;0.75;;;;;;;;;;5045915;28;20076;-71
2023/09/22 09:07:55;;;;;;;2.05;0.70;;;;;;;;;;5038405;28;20060;-69
2023/09/22 09:10:30;;;;;;;6.45;0.77;;;;;;;;;;5036568;28;20053;-68
2023/09/22 09:13:01;;;;;;;1.50;0.73;;;;;;;;;;5042422;28;20080;-68
2023/09/22 09:15:28;;;;;;;2.38;0.90;;;;;;;;;;5033364;28;20057;-69
2023/09/22 09:18:11;;;;;;;2.20;0.73;;;;;;;;;;5021698;28;20060;-68
2023/09/22 09:20:43;;;;;;;3.08;0.80;;;;;;;;;;5036745;28;20072;-68
2023/09/22 09:23:14;;;;;;;4.50;0.82;;;;;;;;;;5040081;28;20184;-68
2023/09/22 09:25:43;;;;;;;4.82;1.00;;;;;;;;;;5019491;28;20144;-68
2023/09/22 09:28:11;;;;;;;1.58;0.80;;;;;;;;;;5041768;28;20037;-68
2023/09/22 09:30:39;;;;;;;7.53;0.90;;;;;;;;;;5043912;28;20064;-69
2023/09/22 09:33:10;;;;;;;1.40;0.70;;;;;;;;;;5035235;28;20076;-68
2023/09/22 09:35:41;;;;;;;4.30;0.80;;;;;;;;;;5041280;28;20116;-68
2023/09/22 09:38:09;;;;;;;1.00;0.60;;;;;;;;;;5020873;28;20076;-68
2023/09/22 09:40:41;;;;;;;2.87;0.63;;;;;;;;;;5038373;28;20064;-68
2023/09/22 09:43:11;;;;;;;0.75;0.63;;;;;;;;;;5016783;28;20056;-68
2023/09/22 09:45:45;;;;;;;1.40;0.75;;;;;;;;;;4966350;28;20080;-68
2023/09/22 09:48:16;;;;;;;3.38;0.82;;;;;;;;;;5039085;28;20056;-68
2023/09/22 09:50:52;;;;;;;3.55;0.80;;;;;;;;;;5040883;28;20064;-68
2023/09/22 09:53:31;;;;;;;2.85;0.90;;;;;;;;;;5042768;28;20048;-69
2023/09/22 09:56:00;;;;;;;4.55;0.82;;;;;;;;;;5013528;28;20138;-69
2023/09/22 09:58:29;;;;;;;2.40;0.88;;;;;;;;;;5061186;28;20044;-69
2023/09/22 10:00:57;;;;;;;2.47;0.80;;;;;;;;;;5070218;28;20055;-68
2023/09/22 10:03:25;;;;;;;3.10;0.77;;;;;;;;;;5059743;28;20076;-68
2023/09/22 10:05:55;;;;;;;5.95;0.90;;;;;;;;;;5055790;28;20059;-68
2023/09/22 10:08:23;;;;;;;1.75;0.60;;;;;;;;;;5060061;28;20056;-69
2023/09/22 10:10:52;;;;;;;1.83;0.60;;;;;;;;;;5052943;28;20056;-69
2023/09/22 10:13:20;;;;;;;2.63;0.73;;;;;;;;;;5060831;28;20079;-70
2023/09/22 10:15:52;;;;;;;1.15;0.60;;;;;;;;;;5047078;28;20103;-69
2023/09/22 10:18:19;;;;;;;3.38;0.70;;;;;;;;;;5060637;28;20129;-68
2023/09/22 10:20:47;;;;;;;2.45;0.75;;;;;;;;;;5075775;28;20139;-68
2023/09/22 10:23:22;;;;;;;1.85;0.70;;;;;;;;;;5059630;28;20142;-69
2023/09/22 10:26:14;;;;;;;2.28;0.57;;;;;;;;;;5057098;28;20052;-69
2023/09/22 10:28:41;;;;;;;1.58;0.70;;;;;;;;;;5035570;28;20071;-69
2023/09/22 10:31:10;;;;;;;4.18;0.70;;;;;;;;;;5042754;28;20064;-68
2023/09/22 10:33:36;;;;;;;1.52;0.70;;;;;;;;;;5039600;28;20102;-68
2023/09/22 10:36:04;;;;;;;0.85;0.60;;;;;;;;;;5052098;28;20055;-69
2023/09/22 10:38:51;;;;;;;3.58;0.80;;;;;;;;;;5056602;28;20060;-69
2023/09/22 10:41:18;;;;;;;2.80;0.80;;;;;;;;;;5057146;28;20064;-69
2023/09/22 10:43:57;;;;;;;0.60;0.50;;;;;;;;;;5058657;28;20064;-69
2023/09/22 10:46:24;;;;;;;1.52;0.70;;;;;;;;;;5026356;28;20063;-69
2023/09/22 10:48:50;;;;;;;3.10;0.93;;;;;;;;;;5048322;28;20061;-69
2023/09/22 10:51:18;;;;;;;2.33;0.80;;;;;;;;;;5055703;28;20084;-69
2023/09/22 10:53:58;;;;;;;1.33;0.85;;;;;;;;;;5039697;28;20107;-69
2023/09/22 10:56:28;;;;;;;1.10;0.60;;;;;;;;;;5032121;28;20056;-68
2023/09/22 10:58:55;;;;;;;1.02;0.60;;;;;;;;;;5048717;28;20064;-69
2023/09/22 11:01:23;;;;;;;7.00;0.90;;;;;;;;;;5044477;28;20106;-69
2023/09/22 11:03:53;;;;;;;2.67;0.70;;;;;;;;;;5063199;28;20048;-68
2023/09/22 11:06:21;;;;;;;2.65;0.75;;;;;;;;;;5029158;28;20049;-69
2023/09/22 11:08:51;;;;;;;1.98;0.80;;;;;;;;;;5031519;28;20093;-68
2023/09/22 11:11:20;;;;;;;3.03;0.60;;;;;;;;;;5038472;28;20084;-68
2023/09/22 11:13:54;;;;;;;1.13;0.70;;;;;;;;;;5040805;28;20049;-69
2023/09/22 11:16:21;;;;;;;2.45;0.82;;;;;;;;;;5024882;28;20049;-69
2023/09/22 11:18:49;;;;;;;2.72;0.60;;;;;;;;;;5031780;28;20238;-68
2023/09/22 11:21:17;;;;;;;4.50;0.60;;;;;;;;;;5041017;28;20052;-69
2023/09/22 11:23:44;;;;;;;1.67;0.60;;;;;;;;;;5059880;28;20110;-68
2023/09/22 11:26:12;;;;;;;1.83;0.70;;;;;;;;;;5046724;28;20103;-70
2023/09/22 11:28:43;;;;;;;1.65;0.63;;;;;;;;;;5040344;28;20056;-69
2023/09/22 11:31:11;;;;;;;2.20;0.75;;;;;;;;;;5046055;28;20053;-68
2023/09/22 11:33:38;;;;;;;1.85;0.70;;;;;;;;;;5022204;28;20056;-69
2023/09/22 11:36:05;;;;;;;2.05;0.80;;;;;;;;;;4998882;28;20128;-68
2023/09/22 11:38:33;;;;;;;2.17;0.63;;;;;;;;;;5029227;28;20056;-68
2023/09/22 11:41:09;;;;;;;3.55;0.90;;;;;;;;;;5053651;28;20121;-68
2023/09/22 11:43:40;;;;;;;1.23;0.55;;;;;;;;;;5062479;28;20075;-68
2023/09/22 11:46:13;;;;;;;1.33;0.65;;;;;;;;;;5037905;28;20084;-68
2023/09/22 11:48:57;;;;;;;1.70;0.75;;;;;;;;;;5055134;28;20990;-68
2023/09/22 11:51:40;;;;;;;1.15;0.68;;;;;;;;;;5029513;28;20083;-68
2023/09/22 11:54:07;;;;;;;2.88;0.68;;;;;;;;;;5042190;28;20122;-69
2023/09/22 11:56:35;;;;;;;2.65;0.85;;;;;;;;;;4994396;28;20124;-68
2023/09/22 11:59:06;;;;;;;1.20;0.70;;;;;;;;;;5041197;28;20188;-68
2023/09/22 12:01:34;;;;;;;3.22;0.52;;;;;;;;;;5042743;28;20059;-68
2023/09/22 12:04:01;;;;;;;2.38;0.60;;;;;;;;;;5060223;28;20068;-68
2023/09/22 12:06:28;;;;;;;2.38;0.90;;;;;;;;;;5002713;28;20171;-67
2023/09/22 12:08:57;;;;;;;3.45;0.70;;;;;;;;;;5050330;28;20056;-68
2023/09/22 12:11:24;;;;;;;1.85;0.70;;;;;;;;;;5042956;28;20052;-69
2023/09/22 12:13:51;;;;;;;2.60;0.80;;;;;;;;;;5039847;28;20148;-69
2023/09/22 12:16:18;;;;;;;2.22;0.68;;;;;;;;;;4960176;28;20058;-67
2023/09/22 12:18:47;;;;;;;1.38;0.50;;;;;;;;;;5031033;28;20048;-68
2023/09/22 12:21:13;;;;;;;2.53;0.80;;;;;;;;;;5059342;28;20067;-68
2023/09/22 12:23:40;;;;;;;2.83;0.80;;;;;;;;;;5041546;28;20071;-68
2023/09/22 12:26:07;;;;;;;4.20;1.00;;;;;;;;;;5016447;28;20083;-67
2023/09/22 12:28:37;;;;;;;1.60;0.85;;;;;;;;;;5040265;28;20063;-67
2023/09/22 12:31:03;;;;;;;5.00;1.08;;;;;;;;;;5059996;28;20068;-67
2023/09/22 12:33:30;;;;;;;2.42;0.60;;;;;;;;;;5041664;28;20060;-67
2023/09/22 12:35:58;;;;;;;1.02;0.70;;;;;;;;;;5051801;28;20110;-66
2023/09/22 12:38:25;;;;;;;1.23;0.50;;;;;;;;;;5059605;28;20080;-66
2023/09/22 12:40:52;;;;;;;3.10;0.80;;;;;;;;;;5053744;28;20330;-67
2023/09/22 12:43:19;;;;;;;1.00;0.63;;;;;;;;;;5065490;28;20074;-67
2023/09/22 12:45:46;;;;;;;2.75;0.60;;;;;;;;;;5034912;28;20268;-67
2023/09/22 12:48:13;;;;;;;2.20;0.65;;;;;;;;;;5042570;28;20060;-67
2023/09/22 12:50:40;;;;;;;5.15;0.75;;;;;;;;;;5057689;28;20064;-66
2023/09/22 12:53:08;;;;;;;2.35;0.73;;;;;;;;;;5055262;28;20110;-66
2023/09/22 12:55:38;;;;;;;5.22;0.63;;;;;;;;;;5038657;28;20109;-67
2023/09/22 12:58:05;;;;;;;4.00;1.00;;;;;;;;;;5057655;28;20060;-67
2023/09/22 13:00:32;;;;;;;0.85;0.55;;;;;;;;;;5059680;28;20087;-67
2023/09/22 13:03:01;;;;;;;3.10;0.68;;;;;;;;;;5053312;28;20047;-67
2023/09/22 13:05:27;;;;;;;;;;;;;;;;;;5037767;28;20060;-67
2023/09/22 13:07:54;;;;;;;2.05;0.77;;;;;;;;;;5059465;28;19924;-67
2023/09/22 13:10:23;;;;;;;2.00;0.65;;;;;;;;;;5041807;28;20056;-66
2023/09/22 13:12:51;;;;;;;1.20;0.55;;;;;;;;;;5034113;28;20060;-66
2023/09/22 13:15:19;;;;;;;3.10;0.70;;;;;;;;;;5023859;28;20071;-69
2023/09/22 13:17:46;;;;;;;2.17;0.70;;;;;;;;;;5058509;28;20204;-66
2023/09/22 13:20:14;;;;;;;2.17;0.68;;;;;;;;;;5063873;28;20076;-68
2023/09/22 13:22:44;;;;;;;16.48;8.77;;;;;;;;;;5039136;28;20132;-68
2023/09/22 13:25:11;;;;;;;3.55;1.48;;;;;;;;;;5034508;28;20055;-69
2023/09/22 13:27:43;;;;;;;4.03;1.25;;;;;;;;;;5069431;28;20050;-71
2023/09/22 13:30:11;;;;;;;2.38;0.88;;;;;;;;;;5079987;28;20071;-66
2023/09/22 13:32:39;;;;;;;2.70;0.90;;;;;;;;;;5072860;28;20103;-67
2023/09/22 13:35:10;;;;;;;;;;;;;;;;;;5042750;28;20056;-66
2023/09/22 13:37:38;;;;;;;3.08;0.98;;;;;;;;;;5079920;28;19924;-67
2023/09/22 13:40:11;;;;;;;4.20;0.68;;;;;;;;;;5080337;28;20067;-68
2023/09/22 13:42:39;;;;;;;1.70;0.68;;;;;;;;;;5060465;28;20119;-68
2023/09/22 13:45:07;;;;;;;1.05;0.68;;;;;;;;;;5038887;28;21404;-67
2023/09/22 13:47:34;;;;;;;3.42;1.10;;;;;;;;;;5070910;28;20048;-67
2023/09/22 13:50:01;;;;;;;8.13;1.52;;;;;;;;;;5060980;28;20093;-68
2023/09/22 13:52:28;;;;;;;3.90;1.40;;;;;;;;;;5078139;28;20059;-68
2023/09/22 13:54:55;;;;;;;4.95;1.48;;;;;;;;;;5047633;28;20087;-68
2023/09/22 13:57:21;;;;;;;2.47;0.80;;;;;;;;;;5061153;28;20139;-67
2023/09/22 13:59:53;;;;;;;8.15;0.80;;;;;;;;;;5060447;28;20127;-67
2023/09/22 14:02:19;;;;;;;4.75;1.00;;;;;;;;;;5060732;28;20124;-67
2023/09/22 14:04:46;;;;;;;3.80;1.35;;;;;;;;;;5066660;28;20052;-67
2023/09/22 14:07:13;;;;;;;3.00;1.20;;;;;;;;;;5060139;28;20047;-68
2023/09/22 14:09:39;;;;;;;3.90;1.92;;;;;;;;;;5061117;28;20119;-67
2023/09/22 14:12:06;;;;;;;4.50;0.85;;;;;;;;;;5077835;28;20052;-69
2023/09/22 14:14:33;;;;;;;2.25;0.68;;;;;;;;;;5074472;28;20052;-68
2023/09/22 14:17:01;;;;;;;1.80;0.63;;;;;;;;;;5069417;28;20068;-67
2023/09/22 14:19:28;;;;;;;5.47;0.80;;;;;;;;;;5059919;28;20056;-68
2023/09/22 14:21:54;;;;;;;3.50;0.60;;;;;;;;;;5077313;28;20052;-68
2023/09/22 14:24:21;;;;;;;2.33;0.77;;;;;;;;;;5060686;28;20044;-68
2023/09/22 14:26:48;;;;;;;5.78;0.60;;;;;;;;;;5047985;28;20055;-67
2023/09/22 14:29:15;;;;;;;1.27;0.60;;;;;;;;;;5076893;28;20056;-67
2023/09/22 14:31:41;;;;;;;1.60;0.70;;;;;;;;;;5079094;28;20059;-67
2023/09/22 14:34:10;;;;;;;1.60;0.60;;;;;;;;;;5061123;28;20040;-67
2023/09/22 14:36:39;;;;;;;3.30;0.90;;;;;;;;;;5035254;28;20064;-69
2023/09/22 14:39:06;;;;;;;2.45;1.25;;;;;;;;;;5051549;28;20103;-67
2023/09/22 14:41:33;;;;;;;1.75;0.60;;;;;;;;;;5058674;28;20147;-68
2023/09/22 14:43:59;;;;;;;4.28;0.70;;;;;;;;;;5061262;28;20118;-68
2023/09/22 14:46:26;;;;;;;3.03;0.77;;;;;;;;;;5072529;28;20144;-67
2023/09/22 14:48:53;;;;;;;1.00;0.50;;;;;;;;;;5075692;28;20076;-67